sensor_id;sensor_type;location;lat;lon;timestamp;P1;durP1;ratioP1;P2;durP2;ratioP2
19816;SDS011;68323;49.394;8.434;2024-02-14T00:00:10;15.10;;;8.10;;
19816;SDS011;68323;49.394;8.434;2024-02-14T00:02:45;12.93;;;7.80;;
19816;SDS011;68323;49.394;8.434;2024-02-14T00:05:14;15.33;;;8.00;;
19816;SDS011;68323;49.394;8.434;2024-02-14T00:07:40;13.70;;;7.93;;
19816;SDS011;68323;49.394;8.434;2024-02-14T00:10:06;13.63;;;7.37;;
19816;SDS011;68323;49.394;8.434;2024-02-14T00:12:32;13.37;;;7.63;;
19816;SDS011;68323;49.394;8.434;2024-02-14T00:14:58;10.90;;;6.90;;
19816;SDS011;68323;49.394;8.434;2024-02-14T00:17:24;12.37;;;7.20;;
19816;SDS011;68323;49.394;8.434;2024-02-14T00:19:50;13.43;;;6.73;;
19816;SDS011;68323;49.394;8.434;2024-02-14T00:22:16;10.70;;;6.50;;
19816;SDS011;68323;49.394;8.434;2024-02-14T00:24:41;12.30;;;7.00;;
19816;SDS011;68323;49.394;8.434;2024-02-14T00:27:07;13.53;;;6.60;;
19816;SDS011;68323;49.394;8.434;2024-02-14T00:29:46;8.77;;;6.43;;
19816;SDS011;68323;49.394;8.434;2024-02-14T00:32:13;14.30;;;7.27;;
19816;SDS011;68323;49.394;8.434;2024-02-14T00:34:39;11.27;;;6.57;;
19816;SDS011;68323;49.394;8.434;2024-02-14T00:37:04;14.83;;;7.47;;
19816;SDS011;68323;49.394;8.434;2024-02-14T00:39:30;12.97;;;6.37;;
19816;SDS011;68323;49.394;8.434;2024-02-14T00:41:55;13.50;;;6.13;;
19816;SDS011;68323;49.394;8.434;2024-02-14T00:44:21;14.57;;;6.17;;
19816;SDS011;68323;49.394;8.434;2024-02-14T00:46:47;14.67;;;6.47;;
19816;SDS011;68323;49.394;8.434;2024-02-14T00:49:13;9.97;;;6.40;;
19816;SDS011;68323;49.394;8.434;2024-02-14T00:51:39;9.97;;;6.87;;
19816;SDS011;68323;49.394;8.434;2024-02-14T00:54:05;12.23;;;6.57;;
19816;SDS011;68323;49.394;8.434;2024-02-14T00:56:31;12.17;;;6.00;;
19816;SDS011;68323;49.394;8.434;2024-02-14T00:58:57;9.77;;;6.13;;
19816;SDS011;68323;49.394;8.434;2024-02-14T01:01:22;11.00;;;6.33;;
19816;SDS011;68323;49.394;8.434;2024-02-14T01:03:48;14.43;;;6.90;;
19816;SDS011;68323;49.394;8.434;2024-02-14T01:06:14;12.73;;;6.87;;
19816;SDS011;68323;49.394;8.434;2024-02-14T01:08:40;11.07;;;6.70;;
19816;SDS011;68323;49.394;8.434;2024-02-14T01:11:07;12.13;;;6.93;;
19816;SDS011;68323;49.394;8.434;2024-02-14T01:13:33;11.27;;;6.27;;
19816;SDS011;68323;49.394;8.434;2024-02-14T01:15:59;12.87;;;6.93;;
19816;SDS011;68323;49.394;8.434;2024-02-14T01:18:24;14.40;;;7.60;;
19816;SDS011;68323;49.394;8.434;2024-02-14T01:20:50;12.77;;;7.40;;
19816;SDS011;68323;49.394;8.434;2024-02-14T01:23:16;13.27;;;7.37;;
19816;SDS011;68323;49.394;8.434;2024-02-14T01:25:41;13.67;;;7.73;;
19816;SDS011;68323;49.394;8.434;2024-02-14T01:28:08;12.20;;;6.57;;
19816;SDS011;68323;49.394;8.434;2024-02-14T01:30:34;16.20;;;7.70;;
19816;SDS011;68323;49.394;8.434;2024-02-14T01:33:01;12.80;;;7.47;;
19816;SDS011;68323;49.394;8.434;2024-02-14T01:35:28;14.47;;;7.27;;
19816;SDS011;68323;49.394;8.434;2024-02-14T01:37:54;13.73;;;7.37;;
19816;SDS011;68323;49.394;8.434;2024-02-14T01:40:20;11.80;;;6.93;;
19816;SDS011;68323;49.394;8.434;2024-02-14T01:42:45;12.67;;;7.77;;
19816;SDS011;68323;49.394;8.434;2024-02-14T01:45:11;18.03;;;8.13;;
19816;SDS011;68323;49.394;8.434;2024-02-14T01:47:37;13.77;;;8.23;;
19816;SDS011;68323;49.394;8.434;2024-02-14T01:50:05;13.47;;;7.73;;
19816;SDS011;68323;49.394;8.434;2024-02-14T01:52:34;15.63;;;7.43;;
19816;SDS011;68323;49.394;8.434;2024-02-14T01:55:01;12.03;;;7.87;;
19816;SDS011;68323;49.394;8.434;2024-02-14T01:57:28;16.70;;;7.80;;
19816;SDS011;68323;49.394;8.434;2024-02-14T01:59:54;15.00;;;7.60;;
19816;SDS011;68323;49.394;8.434;2024-02-14T02:02:22;12.23;;;7.90;;
19816;SDS011;68323;49.394;8.434;2024-02-14T02:04:48;12.77;;;7.70;;
19816;SDS011;68323;49.394;8.434;2024-02-14T02:07:15;15.53;;;8.00;;
19816;SDS011;68323;49.394;8.434;2024-02-14T02:09:43;11.50;;;7.70;;
19816;SDS011;68323;49.394;8.434;2024-02-14T02:12:09;15.53;;;8.30;;
19816;SDS011;68323;49.394;8.434;2024-02-14T02:14:34;13.73;;;8.20;;
19816;SDS011;68323;49.394;8.434;2024-02-14T02:17:00;15.03;;;7.80;;
19816;SDS011;68323;49.394;8.434;2024-02-14T02:19:26;13.13;;;7.43;;
19816;SDS011;68323;49.394;8.434;2024-02-14T02:21:52;15.53;;;7.93;;
19816;SDS011;68323;49.394;8.434;2024-02-14T02:24:18;14.23;;;8.17;;
19816;SDS011;68323;49.394;8.434;2024-02-14T02:26:43;15.47;;;8.70;;
19816;SDS011;68323;49.394;8.434;2024-02-14T02:29:09;16.07;;;8.43;;
19816;SDS011;68323;49.394;8.434;2024-02-14T02:31:36;14.20;;;8.27;;
19816;SDS011;68323;49.394;8.434;2024-02-14T02:34:02;21.00;;;8.60;;
19816;SDS011;68323;49.394;8.434;2024-02-14T02:36:28;15.40;;;8.07;;
19816;SDS011;68323;49.394;8.434;2024-02-14T02:38:55;16.50;;;8.80;;
19816;SDS011;68323;49.394;8.434;2024-02-14T02:41:21;14.10;;;7.77;;
19816;SDS011;68323;49.394;8.434;2024-02-14T02:43:47;14.97;;;8.70;;
19816;SDS011;68323;49.394;8.434;2024-02-14T02:46:14;17.30;;;8.50;;
19816;SDS011;68323;49.394;8.434;2024-02-14T02:48:40;14.57;;;7.73;;
19816;SDS011;68323;49.394;8.434;2024-02-14T02:51:05;15.20;;;8.20;;
19816;SDS011;68323;49.394;8.434;2024-02-14T02:53:31;14.87;;;7.57;;
19816;SDS011;68323;49.394;8.434;2024-02-14T02:55:59;17.80;;;7.80;;
19816;SDS011;68323;49.394;8.434;2024-02-14T02:58:25;14.20;;;7.43;;
19816;SDS011;68323;49.394;8.434;2024-02-14T03:00:51;13.90;;;7.47;;
19816;SDS011;68323;49.394;8.434;2024-02-14T03:03:21;12.50;;;7.43;;
19816;SDS011;68323;49.394;8.434;2024-02-14T03:05:47;13.87;;;7.67;;
19816;SDS011;68323;49.394;8.434;2024-02-14T03:08:14;16.50;;;7.93;;
19816;SDS011;68323;49.394;8.434;2024-02-14T03:10:40;15.57;;;7.70;;
19816;SDS011;68323;49.394;8.434;2024-02-14T03:13:06;13.63;;;7.47;;
19816;SDS011;68323;49.394;8.434;2024-02-14T03:15:36;14.23;;;7.67;;
19816;SDS011;68323;49.394;8.434;2024-02-14T03:18:02;15.37;;;7.73;;
19816;SDS011;68323;49.394;8.434;2024-02-14T03:20:32;12.00;;;6.80;;
19816;SDS011;68323;49.394;8.434;2024-02-14T03:22:58;13.30;;;7.40;;
19816;SDS011;68323;49.394;8.434;2024-02-14T03:25:24;13.33;;;7.20;;
19816;SDS011;68323;49.394;8.434;2024-02-14T03:27:49;14.40;;;7.20;;
19816;SDS011;68323;49.394;8.434;2024-02-14T03:30:18;14.30;;;7.40;;
19816;SDS011;68323;49.394;8.434;2024-02-14T03:32:47;14.90;;;6.60;;
19816;SDS011;68323;49.394;8.434;2024-02-14T03:35:14;12.27;;;7.23;;
19816;SDS011;68323;49.394;8.434;2024-02-14T03:37:43;13.73;;;7.17;;
19816;SDS011;68323;49.394;8.434;2024-02-14T03:40:12;15.17;;;6.90;;
19816;SDS011;68323;49.394;8.434;2024-02-14T03:42:38;16.17;;;7.20;;
19816;SDS011;68323;49.394;8.434;2024-02-14T03:45:05;15.90;;;7.13;;
19816;SDS011;68323;49.394;8.434;2024-02-14T03:47:34;13.60;;;6.43;;
19816;SDS011;68323;49.394;8.434;2024-02-14T03:50:00;12.40;;;7.07;;
19816;SDS011;68323;49.394;8.434;2024-02-14T03:52:29;13.47;;;7.10;;
19816;SDS011;68323;49.394;8.434;2024-02-14T03:54:57;11.53;;;6.70;;
19816;SDS011;68323;49.394;8.434;2024-02-14T03:57:23;12.97;;;6.83;;
19816;SDS011;68323;49.394;8.434;2024-02-14T03:59:50;12.43;;;6.47;;
19816;SDS011;68323;49.394;8.434;2024-02-14T04:02:19;14.97;;;6.90;;
19816;SDS011;68323;49.394;8.434;2024-02-14T04:04:48;13.77;;;6.93;;
19816;SDS011;68323;49.394;8.434;2024-02-14T04:07:16;13.17;;;7.10;;
19816;SDS011;68323;49.394;8.434;2024-02-14T04:09:43;12.87;;;6.70;;
19816;SDS011;68323;49.394;8.434;2024-02-14T04:12:10;11.67;;;6.17;;
19816;SDS011;68323;49.394;8.434;2024-02-14T04:14:38;16.97;;;7.20;;
19816;SDS011;68323;49.394;8.434;2024-02-14T04:17:05;11.43;;;6.73;;
19816;SDS011;68323;49.394;8.434;2024-02-14T04:19:32;13.80;;;7.13;;
19816;SDS011;68323;49.394;8.434;2024-02-14T04:21:59;13.93;;;6.70;;
19816;SDS011;68323;49.394;8.434;2024-02-14T04:24:26;12.77;;;7.40;;
19816;SDS011;68323;49.394;8.434;2024-02-14T04:26:53;14.13;;;6.57;;
19816;SDS011;68323;49.394;8.434;2024-02-14T04:29:21;12.23;;;7.20;;
19816;SDS011;68323;49.394;8.434;2024-02-14T04:31:48;13.17;;;6.90;;
19816;SDS011;68323;49.394;8.434;2024-02-14T04:34:17;13.70;;;6.77;;
19816;SDS011;68323;49.394;8.434;2024-02-14T04:36:44;10.43;;;6.27;;
19816;SDS011;68323;49.394;8.434;2024-02-14T04:39:10;15.97;;;7.13;;
19816;SDS011;68323;49.394;8.434;2024-02-14T04:41:35;11.40;;;6.37;;
19816;SDS011;68323;49.394;8.434;2024-02-14T04:44:02;14.63;;;6.70;;
19816;SDS011;68323;49.394;8.434;2024-02-14T04:46:31;10.73;;;6.10;;
19816;SDS011;68323;49.394;8.434;2024-02-14T04:48:57;9.47;;;6.03;;
19816;SDS011;68323;49.394;8.434;2024-02-14T04:51:23;12.90;;;6.37;;
19816;SDS011;68323;49.394;8.434;2024-02-14T04:53:49;13.17;;;6.27;;
19816;SDS011;68323;49.394;8.434;2024-02-14T04:56:15;11.07;;;6.20;;
19816;SDS011;68323;49.394;8.434;2024-02-14T04:58:43;14.37;;;6.03;;
19816;SDS011;68323;49.394;8.434;2024-02-14T05:01:10;15.30;;;5.93;;
19816;SDS011;68323;49.394;8.434;2024-02-14T05:03:37;11.07;;;5.57;;
19816;SDS011;68323;49.394;8.434;2024-02-14T05:06:04;12.43;;;5.60;;
19816;SDS011;68323;49.394;8.434;2024-02-14T05:08:31;11.60;;;6.13;;
19816;SDS011;68323;49.394;8.434;2024-02-14T05:10:58;13.00;;;6.10;;
19816;SDS011;68323;49.394;8.434;2024-02-14T05:13:26;10.77;;;6.13;;
19816;SDS011;68323;49.394;8.434;2024-02-14T05:15:53;12.70;;;5.90;;
19816;SDS011;68323;49.394;8.434;2024-02-14T05:18:21;14.27;;;6.23;;
19816;SDS011;68323;49.394;8.434;2024-02-14T05:20:47;11.27;;;5.67;;
19816;SDS011;68323;49.394;8.434;2024-02-14T05:23:14;12.03;;;6.50;;
19816;SDS011;68323;49.394;8.434;2024-02-14T05:25:44;12.53;;;6.47;;
19816;SDS011;68323;49.394;8.434;2024-02-14T05:28:10;11.50;;;6.30;;
19816;SDS011;68323;49.394;8.434;2024-02-14T05:30:39;10.53;;;5.60;;
19816;SDS011;68323;49.394;8.434;2024-02-14T05:33:06;12.70;;;5.90;;
19816;SDS011;68323;49.394;8.434;2024-02-14T05:35:33;10.93;;;5.47;;
19816;SDS011;68323;49.394;8.434;2024-02-14T05:38:00;12.93;;;6.10;;
19816;SDS011;68323;49.394;8.434;2024-02-14T05:40:29;9.97;;;5.80;;
19816;SDS011;68323;49.394;8.434;2024-02-14T05:42:56;10.20;;;5.30;;
19816;SDS011;68323;49.394;8.434;2024-02-14T05:45:23;12.57;;;5.70;;
19816;SDS011;68323;49.394;8.434;2024-02-14T05:47:52;15.20;;;6.97;;
19816;SDS011;68323;49.394;8.434;2024-02-14T05:50:18;12.87;;;7.20;;
19816;SDS011;68323;49.394;8.434;2024-02-14T05:52:44;14.33;;;7.60;;
19816;SDS011;68323;49.394;8.434;2024-02-14T05:55:10;12.67;;;6.40;;
19816;SDS011;68323;49.394;8.434;2024-02-14T05:57:36;12.83;;;6.87;;
19816;SDS011;68323;49.394;8.434;2024-02-14T06:00:02;11.50;;;6.27;;
19816;SDS011;68323;49.394;8.434;2024-02-14T06:02:29;14.57;;;7.27;;
19816;SDS011;68323;49.394;8.434;2024-02-14T06:04:55;12.47;;;6.13;;
19816;SDS011;68323;49.394;8.434;2024-02-14T06:07:21;10.43;;;5.50;;
19816;SDS011;68323;49.394;8.434;2024-02-14T06:09:47;11.57;;;5.17;;
19816;SDS011;68323;49.394;8.434;2024-02-14T06:12:13;11.03;;;5.23;;
19816;SDS011;68323;49.394;8.434;2024-02-14T06:14:39;10.00;;;4.80;;
19816;SDS011;68323;49.394;8.434;2024-02-14T06:17:05;8.03;;;4.80;;
19816;SDS011;68323;49.394;8.434;2024-02-14T06:19:31;7.87;;;5.30;;
19816;SDS011;68323;49.394;8.434;2024-02-14T06:21:58;9.53;;;5.47;;
19816;SDS011;68323;49.394;8.434;2024-02-14T06:24:24;10.23;;;4.80;;
19816;SDS011;68323;49.394;8.434;2024-02-14T06:26:50;9.77;;;4.83;;
19816;SDS011;68323;49.394;8.434;2024-02-14T06:29:17;10.07;;;4.57;;
19816;SDS011;68323;49.394;8.434;2024-02-14T06:31:45;11.17;;;5.43;;
19816;SDS011;68323;49.394;8.434;2024-02-14T06:34:14;13.03;;;4.80;;
19816;SDS011;68323;49.394;8.434;2024-02-14T06:36:45;10.80;;;4.53;;
19816;SDS011;68323;49.394;8.434;2024-02-14T06:39:13;10.07;;;4.50;;
19816;SDS011;68323;49.394;8.434;2024-02-14T06:41:41;11.57;;;4.40;;
19816;SDS011;68323;49.394;8.434;2024-02-14T06:44:10;17.83;;;4.93;;
19816;SDS011;68323;49.394;8.434;2024-02-14T06:46:38;9.90;;;4.77;;
19816;SDS011;68323;49.394;8.434;2024-02-14T06:49:04;10.33;;;4.60;;
19816;SDS011;68323;49.394;8.434;2024-02-14T06:51:30;10.37;;;4.10;;
19816;SDS011;68323;49.394;8.434;2024-02-14T06:53:56;11.67;;;4.67;;
19816;SDS011;68323;49.394;8.434;2024-02-14T06:56:22;8.07;;;4.10;;
19816;SDS011;68323;49.394;8.434;2024-02-14T06:58:48;9.63;;;4.10;;
19816;SDS011;68323;49.394;8.434;2024-02-14T07:01:24;8.00;;;4.17;;
19816;SDS011;68323;49.394;8.434;2024-02-14T07:03:50;8.83;;;4.63;;
19816;SDS011;68323;49.394;8.434;2024-02-14T07:06:16;8.77;;;4.90;;
19816;SDS011;68323;49.394;8.434;2024-02-14T07:08:43;7.77;;;4.03;;
19816;SDS011;68323;49.394;8.434;2024-02-14T07:11:09;11.20;;;4.60;;
19816;SDS011;68323;49.394;8.434;2024-02-14T07:13:35;11.87;;;4.20;;
19816;SDS011;68323;49.394;8.434;2024-02-14T07:16:01;7.33;;;3.83;;
19816;SDS011;68323;49.394;8.434;2024-02-14T07:18:27;9.83;;;4.30;;
19816;SDS011;68323;49.394;8.434;2024-02-14T07:20:53;11.70;;;3.80;;
19816;SDS011;68323;49.394;8.434;2024-02-14T07:23:19;11.67;;;3.77;;
19816;SDS011;68323;49.394;8.434;2024-02-14T07:25:46;9.77;;;3.90;;
19816;SDS011;68323;49.394;8.434;2024-02-14T07:28:12;8.93;;;3.97;;
19816;SDS011;68323;49.394;8.434;2024-02-14T07:30:38;8.23;;;3.50;;
19816;SDS011;68323;49.394;8.434;2024-02-14T07:33:04;10.90;;;3.87;;
19816;SDS011;68323;49.394;8.434;2024-02-14T07:35:30;10.53;;;3.90;;
19816;SDS011;68323;49.394;8.434;2024-02-14T07:37:56;8.10;;;3.90;;
19816;SDS011;68323;49.394;8.434;2024-02-14T07:40:22;7.60;;;4.40;;
19816;SDS011;68323;49.394;8.434;2024-02-14T07:42:48;10.93;;;4.20;;
19816;SDS011;68323;49.394;8.434;2024-02-14T07:45:14;42.77;;;4.87;;
19816;SDS011;68323;49.394;8.434;2024-02-14T07:47:41;107.53;;;6.03;;
19816;SDS011;68323;49.394;8.434;2024-02-14T07:50:07;12.13;;;4.00;;
19816;SDS011;68323;49.394;8.434;2024-02-14T07:52:33;7.80;;;3.60;;
19816;SDS011;68323;49.394;8.434;2024-02-14T07:55:01;14.20;;;4.80;;
19816;SDS011;68323;49.394;8.434;2024-02-14T07:57:27;10.87;;;4.03;;
19816;SDS011;68323;49.394;8.434;2024-02-14T07:59:53;8.60;;;3.83;;
19816;SDS011;68323;49.394;8.434;2024-02-14T08:02:19;11.13;;;4.10;;
19816;SDS011;68323;49.394;8.434;2024-02-14T08:04:46;13.33;;;4.47;;
19816;SDS011;68323;49.394;8.434;2024-02-14T08:07:12;9.80;;;4.10;;
19816;SDS011;68323;49.394;8.434;2024-02-14T08:09:38;213.10;;;15.97;;
19816;SDS011;68323;49.394;8.434;2024-02-14T08:12:04;74.97;;;11.03;;
19816;SDS011;68323;49.394;8.434;2024-02-14T08:14:31;13.73;;;4.60;;
19816;SDS011;68323;49.394;8.434;2024-02-14T08:16:57;7.27;;;4.07;;
19816;SDS011;68323;49.394;8.434;2024-02-14T08:19:23;9.57;;;4.17;;
19816;SDS011;68323;49.394;8.434;2024-02-14T08:21:49;7.80;;;3.50;;
19816;SDS011;68323;49.394;8.434;2024-02-14T08:24:15;12.70;;;3.90;;
19816;SDS011;68323;49.394;8.434;2024-02-14T08:26:42;8.40;;;3.60;;
19816;SDS011;68323;49.394;8.434;2024-02-14T08:29:08;10.73;;;3.70;;
19816;SDS011;68323;49.394;8.434;2024-02-14T08:31:36;10.37;;;3.80;;
19816;SDS011;68323;49.394;8.434;2024-02-14T08:34:02;11.10;;;4.50;;
19816;SDS011;68323;49.394;8.434;2024-02-14T08:36:28;12.37;;;5.77;;
19816;SDS011;68323;49.394;8.434;2024-02-14T08:38:54;13.63;;;4.57;;
19816;SDS011;68323;49.394;8.434;2024-02-14T08:41:20;15.27;;;5.70;;
19816;SDS011;68323;49.394;8.434;2024-02-14T08:43:48;9.53;;;4.67;;
19816;SDS011;68323;49.394;8.434;2024-02-14T08:46:14;10.50;;;3.10;;
19816;SDS011;68323;49.394;8.434;2024-02-14T08:48:43;10.73;;;3.80;;
19816;SDS011;68323;49.394;8.434;2024-02-14T08:51:12;12.97;;;3.83;;
19816;SDS011;68323;49.394;8.434;2024-02-14T08:53:38;11.23;;;3.70;;
19816;SDS011;68323;49.394;8.434;2024-02-14T08:56:06;10.87;;;3.20;;
19816;SDS011;68323;49.394;8.434;2024-02-14T08:58:32;11.63;;;3.57;;
19816;SDS011;68323;49.394;8.434;2024-02-14T09:01:00;5.70;;;2.73;;
19816;SDS011;68323;49.394;8.434;2024-02-14T09:03:26;63.27;;;6.40;;
19816;SDS011;68323;49.394;8.434;2024-02-14T09:05:52;13.10;;;3.73;;
19816;SDS011;68323;49.394;8.434;2024-02-14T09:08:19;7.53;;;3.17;;
19816;SDS011;68323;49.394;8.434;2024-02-14T09:10:45;69.83;;;9.50;;
19816;SDS011;68323;49.394;8.434;2024-02-14T09:13:11;6.43;;;3.10;;
19816;SDS011;68323;49.394;8.434;2024-02-14T09:15:38;14.03;;;6.43;;
19816;SDS011;68323;49.394;8.434;2024-02-14T09:18:04;14.23;;;3.20;;
19816;SDS011;68323;49.394;8.434;2024-02-14T09:20:30;42.33;;;6.03;;
19816;SDS011;68323;49.394;8.434;2024-02-14T09:22:56;10.93;;;3.40;;
19816;SDS011;68323;49.394;8.434;2024-02-14T09:25:23;6.27;;;3.07;;
19816;SDS011;68323;49.394;8.434;2024-02-14T09:27:50;7.77;;;3.30;;
19816;SDS011;68323;49.394;8.434;2024-02-14T09:30:16;7.57;;;3.60;;
19816;SDS011;68323;49.394;8.434;2024-02-14T09:32:45;7.87;;;3.20;;
19816;SDS011;68323;49.394;8.434;2024-02-14T09:35:12;8.20;;;2.80;;
19816;SDS011;68323;49.394;8.434;2024-02-14T09:37:40;8.60;;;3.10;;
19816;SDS011;68323;49.394;8.434;2024-02-14T09:40:06;4.67;;;2.53;;
19816;SDS011;68323;49.394;8.434;2024-02-14T09:42:39;11.37;;;3.30;;
19816;SDS011;68323;49.394;8.434;2024-02-14T09:45:07;8.90;;;2.47;;
19816;SDS011;68323;49.394;8.434;2024-02-14T09:47:33;7.23;;;2.47;;
19816;SDS011;68323;49.394;8.434;2024-02-14T09:50:03;6.53;;;2.50;;
19816;SDS011;68323;49.394;8.434;2024-02-14T09:52:31;9.63;;;2.17;;
19816;SDS011;68323;49.394;8.434;2024-02-14T09:54:58;6.50;;;2.60;;
19816;SDS011;68323;49.394;8.434;2024-02-14T09:57:24;6.87;;;2.37;;
19816;SDS011;68323;49.394;8.434;2024-02-14T09:59:51;36.77;;;5.33;;
19816;SDS011;68323;49.394;8.434;2024-02-14T10:02:19;9.47;;;2.60;;
19816;SDS011;68323;49.394;8.434;2024-02-14T10:04:45;7.67;;;2.57;;
19816;SDS011;68323;49.394;8.434;2024-02-14T10:07:11;8.57;;;4.70;;
19816;SDS011;68323;49.394;8.434;2024-02-14T10:09:43;10.00;;;4.30;;
19816;SDS011;68323;49.394;8.434;2024-02-14T10:12:09;11.57;;;3.77;;
19816;SDS011;68323;49.394;8.434;2024-02-14T10:14:38;44.20;;;5.00;;
19816;SDS011;68323;49.394;8.434;2024-02-14T10:17:04;15.43;;;2.70;;
19816;SDS011;68323;49.394;8.434;2024-02-14T10:19:30;31.93;;;3.80;;
19816;SDS011;68323;49.394;8.434;2024-02-14T10:21:59;7.03;;;2.73;;
19816;SDS011;68323;49.394;8.434;2024-02-14T10:24:28;18.23;;;3.37;;
19816;SDS011;68323;49.394;8.434;2024-02-14T10:26:54;20.57;;;3.70;;
19816;SDS011;68323;49.394;8.434;2024-02-14T10:29:22;18.30;;;4.83;;
19816;SDS011;68323;49.394;8.434;2024-02-14T10:31:48;6.13;;;3.20;;
19816;SDS011;68323;49.394;8.434;2024-02-14T10:34:14;13.40;;;2.70;;
19816;SDS011;68323;49.394;8.434;2024-02-14T10:36:42;30.70;;;4.37;;
19816;SDS011;68323;49.394;8.434;2024-02-14T10:39:08;13.47;;;2.70;;
19816;SDS011;68323;49.394;8.434;2024-02-14T10:41:35;14.43;;;3.23;;
19816;SDS011;68323;49.394;8.434;2024-02-14T10:44:02;6.53;;;2.73;;
19816;SDS011;68323;49.394;8.434;2024-02-14T10:46:29;7.77;;;3.27;;
19816;SDS011;68323;49.394;8.434;2024-02-14T10:48:58;7.20;;;2.90;;
19816;SDS011;68323;49.394;8.434;2024-02-14T10:51:24;4.50;;;2.70;;
19816;SDS011;68323;49.394;8.434;2024-02-14T10:53:51;19.07;;;3.57;;
19816;SDS011;68323;49.394;8.434;2024-02-14T10:56:18;6.10;;;2.87;;
19816;SDS011;68323;49.394;8.434;2024-02-14T10:58:47;10.07;;;5.50;;
19816;SDS011;68323;49.394;8.434;2024-02-14T11:01:14;8.10;;;3.13;;
19816;SDS011;68323;49.394;8.434;2024-02-14T11:03:41;6.17;;;3.00;;
19816;SDS011;68323;49.394;8.434;2024-02-14T11:06:07;8.83;;;2.93;;
19816;SDS011;68323;49.394;8.434;2024-02-14T11:08:33;6.73;;;2.90;;
19816;SDS011;68323;49.394;8.434;2024-02-14T11:11:00;12.27;;;3.60;;
19816;SDS011;68323;49.394;8.434;2024-02-14T11:13:26;9.73;;;3.97;;
19816;SDS011;68323;49.394;8.434;2024-02-14T11:15:53;7.60;;;3.43;;
19816;SDS011;68323;49.394;8.434;2024-02-14T11:18:29;13.83;;;3.30;;
19816;SDS011;68323;49.394;8.434;2024-02-14T11:20:55;9.80;;;3.20;;
19816;SDS011;68323;49.394;8.434;2024-02-14T11:23:25;8.27;;;3.50;;
19816;SDS011;68323;49.394;8.434;2024-02-14T11:25:59;5.83;;;2.93;;
19816;SDS011;68323;49.394;8.434;2024-02-14T11:28:26;6.47;;;2.77;;
19816;SDS011;68323;49.394;8.434;2024-02-14T11:30:53;6.60;;;3.20;;
19816;SDS011;68323;49.394;8.434;2024-02-14T11:33:26;4.23;;;2.13;;
19816;SDS011;68323;49.394;8.434;2024-02-14T11:35:52;3.97;;;2.30;;
19816;SDS011;68323;49.394;8.434;2024-02-14T11:38:24;5.90;;;2.87;;
19816;SDS011;68323;49.394;8.434;2024-02-14T11:40:51;10.13;;;5.60;;
19816;SDS011;68323;49.394;8.434;2024-02-14T11:43:19;6.50;;;3.73;;
19816;SDS011;68323;49.394;8.434;2024-02-14T11:45:45;9.60;;;4.10;;
19816;SDS011;68323;49.394;8.434;2024-02-14T11:48:14;8.47;;;4.63;;
19816;SDS011;68323;49.394;8.434;2024-02-14T11:50:41;5.43;;;2.57;;
19816;SDS011;68323;49.394;8.434;2024-02-14T11:53:08;6.00;;;2.50;;
19816;SDS011;68323;49.394;8.434;2024-02-14T11:55:36;19.10;;;7.80;;
19816;SDS011;68323;49.394;8.434;2024-02-14T11:58:03;8.00;;;3.30;;
19816;SDS011;68323;49.394;8.434;2024-02-14T12:00:32;3.50;;;1.73;;
19816;SDS011;68323;49.394;8.434;2024-02-14T12:03:00;3.60;;;2.17;;
19816;SDS011;68323;49.394;8.434;2024-02-14T12:05:26;3.10;;;2.30;;
19816;SDS011;68323;49.394;8.434;2024-02-14T12:07:52;4.03;;;1.97;;
19816;SDS011;68323;49.394;8.434;2024-02-14T12:10:19;3.10;;;1.90;;
19816;SDS011;68323;49.394;8.434;2024-02-14T12:12:46;3.70;;;1.60;;
19816;SDS011;68323;49.394;8.434;2024-02-14T12:15:12;2.07;;;1.50;;
19816;SDS011;68323;49.394;8.434;2024-02-14T12:17:40;3.33;;;1.60;;
19816;SDS011;68323;49.394;8.434;2024-02-14T12:20:08;4.47;;;1.67;;
19816;SDS011;68323;49.394;8.434;2024-02-14T12:22:38;3.03;;;1.57;;
19816;SDS011;68323;49.394;8.434;2024-02-14T12:25:05;3.23;;;1.80;;
19816;SDS011;68323;49.394;8.434;2024-02-14T12:27:32;3.23;;;1.63;;
19816;SDS011;68323;49.394;8.434;2024-02-14T12:29:59;4.73;;;1.70;;
19816;SDS011;68323;49.394;8.434;2024-02-14T12:32:24;3.10;;;1.50;;
19816;SDS011;68323;49.394;8.434;2024-02-14T12:34:50;2.40;;;1.20;;
19816;SDS011;68323;49.394;8.434;2024-02-14T12:37:16;3.20;;;1.50;;
19816;SDS011;68323;49.394;8.434;2024-02-14T12:39:42;2.43;;;1.43;;
19816;SDS011;68323;49.394;8.434;2024-02-14T12:42:08;3.60;;;1.40;;
19816;SDS011;68323;49.394;8.434;2024-02-14T12:44:35;4.47;;;1.33;;
19816;SDS011;68323;49.394;8.434;2024-02-14T12:47:03;1.90;;;1.40;;
19816;SDS011;68323;49.394;8.434;2024-02-14T12:49:29;6.60;;;2.70;;
19816;SDS011;68323;49.394;8.434;2024-02-14T12:51:56;3.90;;;2.87;;
19816;SDS011;68323;49.394;8.434;2024-02-14T12:54:23;3.53;;;2.00;;
19816;SDS011;68323;49.394;8.434;2024-02-14T12:56:49;1.80;;;1.00;;
19816;SDS011;68323;49.394;8.434;2024-02-14T12:59:16;3.83;;;2.00;;
19816;SDS011;68323;49.394;8.434;2024-02-14T13:01:43;1.90;;;1.30;;
19816;SDS011;68323;49.394;8.434;2024-02-14T13:04:10;2.67;;;1.10;;
19816;SDS011;68323;49.394;8.434;2024-02-14T13:06:36;2.30;;;1.13;;
19816;SDS011;68323;49.394;8.434;2024-02-14T13:09:02;2.97;;;1.27;;
19816;SDS011;68323;49.394;8.434;2024-02-14T13:11:30;2.17;;;1.10;;
19816;SDS011;68323;49.394;8.434;2024-02-14T13:13:56;2.67;;;1.60;;
19816;SDS011;68323;49.394;8.434;2024-02-14T13:16:23;3.33;;;1.40;;
19816;SDS011;68323;49.394;8.434;2024-02-14T13:18:48;3.13;;;1.43;;
19816;SDS011;68323;49.394;8.434;2024-02-14T13:21:14;2.87;;;1.43;;
19816;SDS011;68323;49.394;8.434;2024-02-14T13:23:41;2.23;;;1.60;;
19816;SDS011;68323;49.394;8.434;2024-02-14T13:26:07;1.97;;;1.30;;
19816;SDS011;68323;49.394;8.434;2024-02-14T13:28:33;1.53;;;1.17;;
19816;SDS011;68323;49.394;8.434;2024-02-14T13:30:59;2.80;;;1.10;;
19816;SDS011;68323;49.394;8.434;2024-02-14T13:33:24;3.43;;;1.00;;
19816;SDS011;68323;49.394;8.434;2024-02-14T13:35:50;1.70;;;1.17;;
19816;SDS011;68323;49.394;8.434;2024-02-14T13:38:16;2.77;;;1.47;;
19816;SDS011;68323;49.394;8.434;2024-02-14T13:40:42;2.27;;;1.10;;
19816;SDS011;68323;49.394;8.434;2024-02-14T13:43:08;2.27;;;1.20;;
19816;SDS011;68323;49.394;8.434;2024-02-14T13:45:41;2.27;;;1.03;;
19816;SDS011;68323;49.394;8.434;2024-02-14T13:48:08;2.33;;;1.20;;
19816;SDS011;68323;49.394;8.434;2024-02-14T13:50:34;1.63;;;1.10;;
19816;SDS011;68323;49.394;8.434;2024-02-14T13:53:00;2.07;;;1.10;;
19816;SDS011;68323;49.394;8.434;2024-02-14T13:55:25;2.00;;;1.10;;
19816;SDS011;68323;49.394;8.434;2024-02-14T13:57:51;2.60;;;1.93;;
19816;SDS011;68323;49.394;8.434;2024-02-14T14:00:16;2.37;;;1.70;;
19816;SDS011;68323;49.394;8.434;2024-02-14T14:02:42;1.30;;;1.00;;
19816;SDS011;68323;49.394;8.434;2024-02-14T14:05:08;4.13;;;1.20;;
19816;SDS011;68323;49.394;8.434;2024-02-14T14:07:38;1.47;;;1.27;;
19816;SDS011;68323;49.394;8.434;2024-02-14T14:10:08;2.70;;;1.20;;
19816;SDS011;68323;49.394;8.434;2024-02-14T14:12:34;1.97;;;1.10;;
19816;SDS011;68323;49.394;8.434;2024-02-14T14:15:00;3.10;;;1.33;;
19816;SDS011;68323;49.394;8.434;2024-02-14T14:17:27;1.93;;;0.90;;
19816;SDS011;68323;49.394;8.434;2024-02-14T14:19:53;1.27;;;0.90;;
19816;SDS011;68323;49.394;8.434;2024-02-14T14:22:19;2.40;;;0.80;;
19816;SDS011;68323;49.394;8.434;2024-02-14T14:24:44;5.10;;;1.00;;
19816;SDS011;68323;49.394;8.434;2024-02-14T14:27:10;1.00;;;0.67;;
19816;SDS011;68323;49.394;8.434;2024-02-14T14:29:39;0.80;;;0.60;;
19816;SDS011;68323;49.394;8.434;2024-02-14T14:32:06;0.77;;;0.67;;
19816;SDS011;68323;49.394;8.434;2024-02-14T14:34:33;4.30;;;0.70;;
19816;SDS011;68323;49.394;8.434;2024-02-14T14:36:59;0.73;;;0.70;;